Corinthiakos — A8UL2 — position and weather

sailwx.info

Track history (hours):
 
Tides and Currents Weather Stations Pressure Air Temp Water Temp Dewpoint Dewpoint Depression Visibility Wind Speed Wind Dir Waves Ship Positions

Corinthiakos

Last reported at 2017-Aug-08 17:59 UTC. Time now 2017-Aug-22 22:42 UTC.
Position N 01°20' E 103°19'.
Warning: this ship's position is 14 days out of date.

Length 262 m; draft 12 m.

Type: Ship (hazmat cat A). MMSI: 636014516.

Date/timePositionNaut miles runAvg speedWind from/ knotsBaromVisibWave heightAir tempDewpointWater temp
2017-Aug-08 17:59N 01°20' E 103°19'612.7
2017-Aug-08 17:29N 01°16' E 103°24'612.2
2017-Aug-08 16:59N 01°13' E 103°29'611.9
2017-Aug-08 16:30N 01°12' E 103°35'611.7
2017-Aug-08 16:01N 01°10' E 103°40'612.0
2017-Aug-08 15:30N 01°10' E 103°47'713.4
2017-Aug-08 15:00N 01°12' E 103°53'5 9.6
2017-Aug-08 14:30N 01°15' E 103°56'2 3.6
2017-Aug-08 13:59N 01°17' E 103°55'0 0.2
2017-Aug-08 13:28N 01°17' E 103°55'0 0.0
2017-Aug-08 12:58N 01°17' E 103°55'0 0.0
2017-Aug-08 12:28N 01°17' E 103°55'0 0.0
2017-Aug-08 11:55N 01°17' E 103°55'0 0.0
2017-Aug-08 11:25N 01°17' E 103°55'0 0.0
2017-Aug-08 10:58N 01°17' E 103°55'0 0.0
2017-Aug-08 10:25N 01°17' E 103°55'0 0.0
2017-Aug-08 09:58N 01°17' E 103°55'0 0.0
2017-Aug-08 09:25N 01°17' E 103°55'0 0.0
2017-Aug-08 08:52N 01°17' E 103°55'0 0.0
2017-Aug-08 08:28N 01°17' E 103°55'0 0.0
2017-Aug-08 05:55N 01°17' E 103°55'0 0.0
2017-Aug-08 05:25N 01°17' E 103°55'0 0.1
2017-Aug-08 04:59N 01°17' E 103°55'1 2.2
2017-Aug-08 04:30N 01°16' E 103°56'4 8.2
2017-Aug-08 04:01N 01°14' E 103°52'2 3.3
2017-Aug-08 03:30N 01°16' E 103°51'0 0.0
2017-Aug-08 02:56N 01°16' E 103°51'0 0.0
2017-Aug-08 02:29N 01°16' E 103°51'0 0.0
2017-Aug-08 01:59N 01°16' E 103°51'0 0.0
2017-Aug-08 01:29N 01°16' E 103°51'0 0.0
2017-Aug-08 00:59N 01°16' E 103°51'0 0.0
2017-Aug-08 00:29N 01°16' E 103°51'0 0.0
2017-Aug-07 23:59N 01°16' E 103°51'0 0.0
2017-Aug-07 23:29N 01°16' E 103°51'0 0.0
2017-Aug-07 22:59N 01°16' E 103°51'0 0.0
2017-Aug-07 22:29N 01°16' E 103°51'0 0.0
2017-Aug-07 21:59N 01°16' E 103°51'0 0.0
2017-Aug-07 21:29N 01°16' E 103°51'0 0.0
2017-Aug-07 20:59N 01°16' E 103°51'0 0.0
2017-Aug-07 20:29N 01°16' E 103°51'0 0.0
2017-Aug-07 19:59N 01°16' E 103°51'0 0.0
2017-Aug-07 19:26N 01°16' E 103°51'0 0.0
2017-Aug-07 18:59N 01°16' E 103°51'0 0.0
2017-Aug-07 18:29N 01°16' E 103°51'0 0.0
2017-Aug-07 17:59N 01°16' E 103°51'0 0.0
2017-Aug-07 17:29N 01°16' E 103°51'0 0.4
2017-Aug-07 17:00N 01°16' E 103°51'3 6.5
2017-Aug-07 16:30N 01°14' E 103°53'3 6.9
2017-Aug-07 16:01N 01°14' E 103°57'714.1
2017-Aug-07 15:30N 01°16' E 104°04'  
2017-Aug-03 12:40N 22°19' E 114°06'1 5.2
2017-Aug-03 12:29N 22°20' E 114°07'29210.3
2017-Aug-02 08:10N 22°25' E 119°23'319.1
2017-Aug-02 08:00N 22°25' E 119°26'1019.2
2017-Aug-02 07:29N 22°26' E 119°37'919.5
2017-Aug-02 07:00N 22°28' E 119°47'1019.1
2017-Aug-02 06:30N 22°30' E 119°57'918.2
2017-Aug-02 06:00N 22°32' E 120°06'816.6
2017-Aug-02 05:30N 22°33' E 120°15'4 8.6
2017-Aug-02 05:00N 22°33' E 120°20'0 0.1
2017-Aug-02 04:30N 22°33' E 120°20'0 0.0
2017-Aug-02 03:33N 22°33' E 120°20'0 0.0
2017-Aug-02 03:18N 22°33' E 120°20'  
Track history (hours):
 
Tides and Currents Weather Stations Pressure Air Temp Water Temp Dewpoint Dewpoint Depression Visibility Wind Speed Wind Dir Waves Ship Positions

Corinthiakos

Last reported at 2017-Aug-08 17:59 UTC. Time now 2017-Aug-22 22:42 UTC.
Position N 01°20' E 103°19'.
Warning: this ship's position is 14 days out of date.

Length 262 m; draft 12 m.

Type: Ship (hazmat cat A). MMSI: 636014516.

Date/timePositionNaut miles runAvg speedWind from/ knotsBaromVisibWave heightAir tempDewpointWater temp
2017-Aug-08 17:59N 01°20' E 103°19'612.7
2017-Aug-08 17:29N 01°16' E 103°24'612.2
2017-Aug-08 16:59N 01°13' E 103°29'611.9
2017-Aug-08 16:30N 01°12' E 103°35'611.7
2017-Aug-08 16:01N 01°10' E 103°40'612.0
2017-Aug-08 15:30N 01°10' E 103°47'713.4
2017-Aug-08 15:00N 01°12' E 103°53'5 9.6
2017-Aug-08 14:30N 01°15' E 103°56'2 3.6
2017-Aug-08 13:59N 01°17' E 103°55'0 0.2
2017-Aug-08 13:28N 01°17' E 103°55'0 0.0
2017-Aug-08 12:58N 01°17' E 103°55'0 0.0
2017-Aug-08 12:28N 01°17' E 103°55'0 0.0
2017-Aug-08 11:55N 01°17' E 103°55'0 0.0
2017-Aug-08 11:25N 01°17' E 103°55'0 0.0
2017-Aug-08 10:58N 01°17' E 103°55'0 0.0
2017-Aug-08 10:25N 01°17' E 103°55'0 0.0
2017-Aug-08 09:58N 01°17' E 103°55'0 0.0
2017-Aug-08 09:25N 01°17' E 103°55'0 0.0
2017-Aug-08 08:52N 01°17' E 103°55'0 0.0
2017-Aug-08 08:28N 01°17' E 103°55'0 0.0
2017-Aug-08 05:55N 01°17' E 103°55'0 0.0
2017-Aug-08 05:25N 01°17' E 103°55'0 0.1
2017-Aug-08 04:59N 01°17' E 103°55'1 2.2
2017-Aug-08 04:30N 01°16' E 103°56'4 8.2
2017-Aug-08 04:01N 01°14' E 103°52'2 3.3
2017-Aug-08 03:30N 01°16' E 103°51'0 0.0
2017-Aug-08 02:56N 01°16' E 103°51'0 0.0
2017-Aug-08 02:29N 01°16' E 103°51'0 0.0
2017-Aug-08 01:59N 01°16' E 103°51'0 0.0
2017-Aug-08 01:29N 01°16' E 103°51'0 0.0
2017-Aug-08 00:59N 01°16' E 103°51'0 0.0
2017-Aug-08 00:29N 01°16' E 103°51'0 0.0
2017-Aug-07 23:59N 01°16' E 103°51'0 0.0
2017-Aug-07 23:29N 01°16' E 103°51'0 0.0
2017-Aug-07 22:59N 01°16' E 103°51'0 0.0
2017-Aug-07 22:29N 01°16' E 103°51'0 0.0
2017-Aug-07 21:59N 01°16' E 103°51'0 0.0
2017-Aug-07 21:29N 01°16' E 103°51'0 0.0
2017-Aug-07 20:59N 01°16' E 103°51'0 0.0
2017-Aug-07 20:29N 01°16' E 103°51'0 0.0
2017-Aug-07 19:59N 01°16' E 103°51'0 0.0
2017-Aug-07 19:26N 01°16' E 103°51'0 0.0
2017-Aug-07 18:59N 01°16' E 103°51'0 0.0
2017-Aug-07 18:29N 01°16' E 103°51'0 0.0
2017-Aug-07 17:59N 01°16' E 103°51'0 0.0
2017-Aug-07 17:29N 01°16' E 103°51'0 0.4
2017-Aug-07 17:00N 01°16' E 103°51'3 6.5
2017-Aug-07 16:30N 01°14' E 103°53'3 6.9
2017-Aug-07 16:01N 01°14' E 103°57'714.1
2017-Aug-07 15:30N 01°16' E 104°04'  
2017-Aug-03 12:40N 22°19' E 114°06'1 5.2
2017-Aug-03 12:29N 22°20' E 114°07'29210.3
2017-Aug-02 08:10N 22°25' E 119°23'319.1
2017-Aug-02 08:00N 22°25' E 119°26'1019.2
2017-Aug-02 07:29N 22°26' E 119°37'919.5
2017-Aug-02 07:00N 22°28' E 119°47'1019.1
2017-Aug-02 06:30N 22°30' E 119°57'918.2
2017-Aug-02 06:00N 22°32' E 120°06'816.6
2017-Aug-02 05:30N 22°33' E 120°15'4 8.6
2017-Aug-02 05:00N 22°33' E 120°20'0 0.1
2017-Aug-02 04:30N 22°33' E 120°20'0 0.0
2017-Aug-02 03:33N 22°33' E 120°20'0 0.0
2017-Aug-02 03:18N 22°33' E 120°20'  

Dump ship's entire track history